Time;durP1;ratioP1;P1;durP2;ratioP2;P2;SDS_P1;SDS_P2;PMS_P1;PMS_P2;Temp;Humidity;BMP_temperature;BMP_pressure;BME280_temperature;BME280_humidity;BME280_pressure;Samples;Min_cycle;Max_cycle;Signal;HPM_P1;HPM_P2
2022/07/13 00:00:10;;;;;;;1.75;1.23;;;22.40;71.10;;;;;;4771336;29;20070;-82
2022/07/13 00:02:37;;;;;;;1.75;1.08;;;22.40;71.40;;;;;;4756329;30;20070;-82
2022/07/13 00:05:06;;;;;;;1.77;1.30;;;22.30;71.70;;;;;;4733393;30;20496;-82
2022/07/13 00:07:34;;;;;;;1.58;1.13;;;22.30;71.80;;;;;;4771110;30;20063;-82
2022/07/13 00:10:02;;;;;;;1.70;1.00;;;22.30;72.80;;;;;;4786142;29;20497;-82
2022/07/13 00:12:29;;;;;;;1.83;1.20;;;22.20;72.40;;;;;;4768558;29;20056;-82
2022/07/13 00:14:56;;;;;;;2.75;1.40;;;22.20;72.70;;;;;;4782849;29;20079;-82
2022/07/13 00:17:23;;;;;;;2.55;1.50;;;22.10;73.00;;;;;;4788801;29;20503;-83
2022/07/13 00:19:50;;;;;;;3.30;1.40;;;22.10;73.20;;;;;;4774261;30;20051;-82
2022/07/13 00:22:17;;;;;;;2.63;1.52;;;22.10;73.40;;;;;;4756260;30;20109;-82
2022/07/13 00:24:44;;;;;;;2.95;1.38;;;22.10;73.60;;;;;;4771032;30;20047;-82
2022/07/13 00:27:11;;;;;;;2.40;1.40;;;22.10;73.90;;;;;;4790749;29;20067;-82
2022/07/13 00:29:38;;;;;;;3.15;1.58;;;22.10;74.00;;;;;;4775366;29;20048;-83
2022/07/13 00:32:05;;;;;;;2.15;1.20;;;22.10;74.20;;;;;;4774706;29;20059;-82
2022/07/13 00:34:32;;;;;;;2.92;1.73;;;22.10;74.30;;;;;;4771141;29;20089;-83
2022/07/13 00:37:00;;;;;;;2.35;1.50;;;22.10;74.50;;;;;;4755005;30;20406;-83
2022/07/13 00:39:27;;;;;;;2.47;1.52;;;22.10;74.70;;;;;;4792327;29;20509;-83
2022/07/13 00:41:54;;;;;;;2.05;1.20;;;22.10;74.80;;;;;;4756960;30;20109;-82
2022/07/13 00:44:21;;;;;;;1.98;1.15;;;22.10;74.90;;;;;;4778625;29;20055;-82
2022/07/13 00:46:55;;;;;;;2.80;1.35;;;22.10;75.00;;;;;;4785489;30;20054;-82
2022/07/13 00:49:23;;;;;;;2.28;1.33;;;22.10;75.20;;;;;;4785412;29;20052;-83
2022/07/13 00:51:50;;;;;;;1.95;1.05;;;22.10;75.30;;;;;;4755433;29;20052;-82
2022/07/13 00:54:19;;;;;;;2.95;1.80;;;22.00;75.40;;;;;;4771742;30;20048;-82
2022/07/13 00:56:48;;;;;;;1.95;1.40;;;22.00;75.60;;;;;;4740742;30;20052;-82
2022/07/13 00:59:15;;;;;;;1.95;1.08;;;22.00;75.90;;;;;;4769595;30;20059;-82
2022/07/13 01:01:42;;;;;;;2.20;1.30;;;21.90;76.00;;;;;;4752291;30;20163;-82
2022/07/13 01:04:09;;;;;;;2.72;1.45;;;22.00;76.30;;;;;;4766898;30;20040;-82
2022/07/13 01:06:37;;;;;;;2.13;1.40;;;21.90;76.40;;;;;;4767110;30;20060;-82
2022/07/13 01:09:04;;;;;;;2.45;1.42;;;22.00;76.60;;;;;;4771542;30;20456;-82
2022/07/13 01:11:32;;;;;;;2.13;1.30;;;21.90;76.70;;;;;;4760277;30;20511;-83
2022/07/13 01:14:00;;;;;;;1.50;0.98;;;21.90;76.80;;;;;;4769701;30;20451;-82
2022/07/13 01:16:28;;;;;;;2.40;1.30;;;21.90;76.90;;;;;;4769681;30;20063;-82
2022/07/13 01:18:55;;;;;;;1.90;1.30;;;22.00;77.00;;;;;;4740037;30;20190;-82
2022/07/13 01:21:23;;;;;;;2.10;1.35;;;22.00;77.10;;;;;;4784095;30;20040;-82
2022/07/13 01:23:51;;;;;;;2.60;1.50;;;22.00;77.20;;;;;;4777773;29;20057;-82
2022/07/13 01:26:18;;;;;;;2.60;1.58;;;21.90;77.20;;;;;;4768484;30;20055;-82
2022/07/13 01:28:45;;;;;;;1.80;1.08;;;21.90;77.30;;;;;;4760390;30;20048;-82
2022/07/13 01:31:12;;;;;;;2.15;1.10;;;21.90;77.40;;;;;;4739840;30;20407;-82
2022/07/13 01:33:39;;;;;;;1.77;1.10;;;21.90;77.40;;;;;;4769634;30;20132;-83
2022/07/13 01:36:06;;;;;;;2.47;1.65;;;22.00;77.50;;;;;;4769638;30;20055;-82
2022/07/13 01:38:33;;;;;;;1.70;1.05;;;21.90;77.60;;;;;;4769004;29;20524;-82
2022/07/13 01:41:02;;;;;;;2.38;1.58;;;21.90;77.60;;;;;;4754609;30;20079;-83
2022/07/13 01:43:30;;;;;;;2.67;1.55;;;21.90;77.80;;;;;;4769706;30;20051;-82
2022/07/13 01:45:57;;;;;;;2.33;1.50;;;21.90;77.90;;;;;;4783398;29;20047;-82
2022/07/13 01:48:24;;;;;;;2.50;1.52;;;21.90;78.00;;;;;;4775582;30;20051;-82
2022/07/13 01:50:51;;;;;;;2.95;1.40;;;22.00;78.10;;;;;;4744719;30;20051;-83
2022/07/13 01:53:18;;;;;;;2.50;1.50;;;21.90;78.10;;;;;;4784119;29;20116;-83
2022/07/13 01:55:45;;;;;;;2.83;1.55;;;21.90;78.10;;;;;;4754199;30;20059;-82
2022/07/13 01:58:12;;;;;;;2.25;1.45;;;21.90;78.20;;;;;;4763831;30;20059;-82
2022/07/13 02:00:41;;;;;;;1.90;1.33;;;21.90;78.30;;;;;;4754689;30;20059;-82
2022/07/13 02:03:08;;;;;;;2.30;1.60;;;21.90;78.30;;;;;;4754396;30;20054;-81
2022/07/13 02:05:36;;;;;;;2.08;1.40;;;21.90;78.40;;;;;;4776275;29;20048;-79
2022/07/13 02:08:05;;;;;;;2.83;1.52;;;21.90;79.10;;;;;;4754045;30;20450;-80
2022/07/13 02:10:35;;;;;;;2.63;1.70;;;21.90;78.50;;;;;;4773159;30;20690;-80
2022/07/13 02:13:06;;;;;;;1.95;1.23;;;21.90;78.50;;;;;;4754468;30;20102;-80
2022/07/13 02:15:34;;;;;;;2.10;1.30;;;22.00;78.60;;;;;;4767149;30;20047;-80
2022/07/13 02:18:03;;;;;;;1.90;1.33;;;21.90;78.50;;;;;;4769447;30;20052;-80
2022/07/13 02:20:32;;;;;;;3.25;1.70;;;21.90;78.60;;;;;;4787904;29;20471;-80
2022/07/13 02:23:01;;;;;;;2.55;1.58;;;21.90;78.70;;;;;;4729626;30;20077;-80
2022/07/13 02:25:28;;;;;;;2.30;1.52;;;21.90;78.80;;;;;;4769017;30;20077;-80
2022/07/13 02:27:55;;;;;;;2.25;1.40;;;21.90;78.90;;;;;;4795857;29;20382;-79
2022/07/13 02:30:24;;;;;;;2.05;1.40;;;21.90;78.90;;;;;;4780654;29;20444;-80
2022/07/13 02:32:55;;;;;;;2.00;1.20;;;21.90;79.10;;;;;;4756313;30;20142;-80
2022/07/13 02:35:23;;;;;;;2.17;1.20;;;21.90;79.10;;;;;;4792494;29;20051;-80
2022/07/13 02:37:51;;;;;;;2.03;1.30;;;21.90;79.20;;;;;;4751763;29;20517;-80
2022/07/13 02:40:18;;;;;;;2.30;1.63;;;21.90;79.20;;;;;;4779005;29;20479;-80
2022/07/13 02:42:47;;;;;;;2.38;1.38;;;21.90;79.20;;;;;;4757981;30;20048;-79
2022/07/13 02:45:14;;;;;;;1.98;1.25;;;21.90;79.30;;;;;;4794383;29;20062;-80
2022/07/13 02:47:41;;;;;;;1.70;1.20;;;21.90;79.40;;;;;;4784389;29;20059;-79
2022/07/13 02:50:10;;;;;;;2.08;1.20;;;21.90;79.40;;;;;;4770691;29;20466;-79
2022/07/13 02:52:37;;;;;;;2.10;1.30;;;21.80;79.30;;;;;;4770892;30;20060;-79
2022/07/13 02:55:05;;;;;;;1.95;1.35;;;21.80;79.40;;;;;;4783315;29;20060;-80
2022/07/13 02:57:32;;;;;;;1.80;1.35;;;21.80;79.40;;;;;;4769045;30;20127;-79
2022/07/13 03:00:01;;;;;;;2.17;1.50;;;21.80;79.50;;;;;;4745512;30;20524;-80
2022/07/13 03:02:30;;;;;;;3.22;1.33;;;21.80;79.50;;;;;;4761739;30;20052;-80
2022/07/13 03:04:57;;;;;;;2.22;1.23;;;21.70;79.40;;;;;;4748325;30;20082;-80
2022/07/13 03:07:25;;;;;;;2.03;1.10;;;21.70;79.40;;;;;;4742872;30;20048;-80
2022/07/13 03:09:53;;;;;;;2.08;1.20;;;21.70;79.40;;;;;;4752604;30;20058;-79
2022/07/13 03:12:24;;;;;;;2.35;1.20;;;21.70;79.50;;;;;;4773063;30;20082;-80
2022/07/13 03:14:52;;;;;;;1.77;1.00;;;21.70;79.50;;;;;;4776060;29;20131;-79
2022/07/13 03:17:19;;;;;;;1.90;1.10;;;21.70;79.50;;;;;;4774279;30;20200;-80
2022/07/13 03:19:47;;;;;;;2.35;1.50;;;21.70;79.40;;;;;;4756843;30;20128;-80
2022/07/13 03:22:15;;;;;;;1.75;0.98;;;21.70;79.40;;;;;;4758839;30;20105;-79
2022/07/13 03:24:42;;;;;;;2.42;1.30;;;21.70;79.40;;;;;;4764476;29;20072;-79
2022/07/13 03:27:10;;;;;;;1.75;1.10;;;21.70;79.40;;;;;;4777341;30;20043;-79
2022/07/13 03:29:37;;;;;;;1.80;1.00;;;21.60;79.40;;;;;;4751462;30;20108;-79
2022/07/13 03:32:06;;;;;;;1.52;0.73;;;21.60;79.50;;;;;;4786109;30;20417;-79
2022/07/13 03:34:33;;;;;;;1.40;1.00;;;21.60;79.60;;;;;;4759741;30;20059;-81
2022/07/13 03:37:01;;;;;;;2.03;1.10;;;21.60;79.60;;;;;;4744724;30;20421;-81
2022/07/13 03:39:28;;;;;;;1.52;1.10;;;21.70;79.70;;;;;;4756443;30;20052;-81
2022/07/13 03:41:57;;;;;;;1.80;1.27;;;21.60;79.60;;;;;;4756556;30;20121;-81
2022/07/13 03:44:25;;;;;;;1.90;1.27;;;21.60;79.60;;;;;;4744043;30;20045;-81
2022/07/13 03:46:53;;;;;;;4.18;1.17;;;21.60;79.70;;;;;;4770862;29;20577;-79
2022/07/13 03:49:20;;;;;;;1.30;0.88;;;21.60;79.70;;;;;;4770840;30;20048;-80
2022/07/13 03:51:48;;;;;;;2.05;1.25;;;21.70;79.70;;;;;;4741603;30;20047;-79
2022/07/13 03:54:16;;;;;;;1.73;1.00;;;21.70;79.80;;;;;;4747951;30;20047;-80
2022/07/13 03:56:44;;;;;;;2.70;1.10;;;21.70;79.80;;;;;;4756530;30;20040;-79
2022/07/13 03:59:14;;;;;;;2.78;1.13;;;21.70;79.70;;;;;;4772564;30;20401;-79
2022/07/13 04:01:42;;;;;;;1.65;0.95;;;21.70;79.60;;;;;;4756311;30;20044;-80
2022/07/13 04:04:09;;;;;;;1.92;1.05;;;21.70;79.60;;;;;;4747348;30;20056;-79
2022/07/13 04:06:39;;;;;;;1.52;1.05;;;21.70;79.60;;;;;;4741833;30;20434;-79
2022/07/13 04:09:06;;;;;;;1.35;0.90;;;21.80;79.60;;;;;;4743286;30;20059;-79
2022/07/13 04:11:33;;;;;;;1.52;1.00;;;21.80;79.60;;;;;;4784845;29;20047;-79
2022/07/13 04:14:01;;;;;;;1.55;1.02;;;21.80;79.50;;;;;;4754967;29;20086;-79
2022/07/13 04:16:28;;;;;;;1.92;0.90;;;21.80;79.50;;;;;;4771428;30;20062;-79
2022/07/13 04:18:56;;;;;;;1.55;0.80;;;21.80;80.10;;;;;;4769856;29;20119;-79
2022/07/13 04:21:23;;;;;;;1.33;0.85;;;21.90;79.50;;;;;;4741921;30;20058;-79
2022/07/13 04:23:50;;;;;;;1.55;0.95;;;21.80;79.40;;;;;;4759913;29;20546;-79
2022/07/13 04:26:17;;;;;;;2.03;0.80;;;21.80;79.40;;;;;;4770194;30;20067;-79
2022/07/13 04:28:45;;;;;;;1.50;0.90;;;21.80;79.30;;;;;;4771360;30;20069;-79
2022/07/13 04:31:16;;;;;;;1.65;1.05;;;21.80;79.30;;;;;;4729804;30;20058;-79
2022/07/13 04:33:45;;;;;;;1.42;0.80;;;21.80;79.40;;;;;;4760686;30;20059;-79
2022/07/13 04:36:16;;;;;;;1.42;0.70;;;21.80;79.40;;;;;;4750100;30;20101;-79
2022/07/13 04:38:43;;;;;;;1.50;0.90;;;21.80;79.50;;;;;;4747781;29;20059;-79
2022/07/13 04:41:11;;;;;;;3.40;1.00;;;21.70;79.40;;;;;;4757212;29;20067;-79
2022/07/13 04:43:39;;;;;;;1.50;0.90;;;21.70;79.50;;;;;;4761167;30;20101;-79
2022/07/13 04:46:13;;;;;;;1.60;0.88;;;21.80;79.50;;;;;;4781668;29;20129;-79
2022/07/13 04:48:42;;;;;;;1.48;0.90;;;21.80;79.40;;;;;;4784879;30;20505;-80
2022/07/13 04:51:11;;;;;;;1.50;0.80;;;21.80;79.40;;;;;;4770304;30;20047;-79
2022/07/13 04:53:39;;;;;;;1.60;0.80;;;21.90;79.40;;;;;;4772761;30;20139;-79
2022/07/13 04:56:10;;;;;;;1.30;0.80;;;21.90;79.20;;;;;;4784497;30;20531;-79
2022/07/13 04:58:37;;;;;;;1.17;0.77;;;22.00;79.10;;;;;;4755051;30;20412;-79
2022/07/13 05:01:06;;;;;;;1.20;0.70;;;22.00;78.80;;;;;;4755826;30;20058;-77
2022/07/13 05:03:54;;;;;;;1.20;0.70;;;22.10;78.70;;;;;;4770116;30;20048;-77
2022/07/13 05:06:21;;;;;;;2.00;0.77;;;22.20;78.60;;;;;;4769242;30;20055;-77
2022/07/13 05:08:48;;;;;;;1.50;0.70;;;22.30;78.40;;;;;;4790911;29;20059;-78
2022/07/13 05:11:15;;;;;;;1.05;0.70;;;22.30;78.30;;;;;;4740651;30;20470;-77
2022/07/13 05:13:44;;;;;;;1.52;0.82;;;22.40;78.90;;;;;;4740289;30;20052;-78
2022/07/13 05:16:11;;;;;;;1.20;0.60;;;22.40;78.10;;;;;;4740110;30;20112;-77
2022/07/13 05:18:38;;;;;;;1.35;0.75;;;22.40;78.00;;;;;;4742138;30;20177;-77
2022/07/13 05:21:11;;;;;;;2.28;0.70;;;22.50;78.10;;;;;;4775011;29;20051;-81
2022/07/13 05:23:38;;;;;;;1.02;0.50;;;22.50;78.00;;;;;;4777439;30;20093;-78
2022/07/13 05:26:07;;;;;;;1.85;0.70;;;22.50;77.90;;;;;;4770826;29;20110;-78
2022/07/13 05:28:37;;;;;;;1.38;0.80;;;22.50;77.80;;;;;;4794212;29;20057;-78
2022/07/13 05:31:08;;;;;;;2.75;0.68;;;22.60;77.70;;;;;;4788622;29;20062;-76
2022/07/13 05:33:36;;;;;;;1.23;0.70;;;22.60;77.50;;;;;;4796578;29;20051;-77
2022/07/13 05:36:11;;;;;;;2.05;0.70;;;22.70;77.40;;;;;;4799379;29;20078;-77
2022/07/13 05:38:39;;;;;;;1.90;0.73;;;22.70;77.10;;;;;;4777313;29;20456;-79
2022/07/13 05:41:06;;;;;;;1.67;0.75;;;22.70;76.70;;;;;;4786664;29;20055;-79
2022/07/13 05:43:33;;;;;;;2.42;1.13;;;22.80;76.60;;;;;;4778440;29;20055;-76
2022/07/13 05:46:02;;;;;;;2.15;1.20;;;22.80;76.40;;;;;;4770848;30;20432;-77
2022/07/13 05:48:29;;;;;;;2.10;1.10;;;22.90;76.60;;;;;;4792309;29;20078;-78
2022/07/13 05:50:57;;;;;;;1.70;1.00;;;22.90;75.50;;;;;;4776261;30;20119;-80
2022/07/13 05:53:46;;;;;;;2.97;1.00;;;22.90;75.20;;;;;;4785670;30;20104;-79
2022/07/13 05:56:14;;;;;;;2.47;1.33;;;23.00;75.10;;;;;;4784958;29;20258;-78
2022/07/13 05:58:41;;;;;;;2.33;1.05;;;23.00;74.80;;;;;;4783701;30;20048;-78
2022/07/13 06:01:08;;;;;;;2.42;1.33;;;23.00;74.50;;;;;;4756193;30;20409;-79
2022/07/13 06:03:35;;;;;;;4.40;2.00;;;23.10;74.30;;;;;;4739431;30;20101;-78
2022/07/13 06:06:02;;;;;;;2.67;1.30;;;23.10;74.00;;;;;;4768553;30;20077;-81
2022/07/13 06:08:29;;;;;;;2.95;1.58;;;23.20;74.10;;;;;;4753983;30;20052;-80
2022/07/13 06:10:56;;;;;;;3.60;1.98;;;23.20;73.60;;;;;;4793842;29;20052;-78
2022/07/13 06:13:28;;;;;;;2.90;1.83;;;23.20;73.20;;;;;;4740395;30;20078;-82
2022/07/13 06:15:57;;;;;;;2.53;1.58;;;23.30;73.10;;;;;;4739109;30;20501;-79
2022/07/13 06:18:24;;;;;;;3.78;1.77;;;23.30;72.90;;;;;;4759249;30;20146;-80
2022/07/13 06:20:52;;;;;;;4.72;2.38;;;23.30;72.80;;;;;;4768361;29;20056;-82
2022/07/13 06:23:20;;;;;;;3.70;2.10;;;23.40;72.60;;;;;;4768465;30;20047;-82
2022/07/13 06:25:47;;;;;;;3.97;2.45;;;23.40;72.30;;;;;;4783300;30;20109;-80
2022/07/13 06:28:14;;;;;;;3.75;2.10;;;23.50;72.00;;;;;;4746659;30;20104;-79
2022/07/13 06:30:41;;;;;;;4.35;2.10;;;23.50;71.70;;;;;;4766322;30;20044;-81
2022/07/13 06:33:08;;;;;;;4.50;2.67;;;23.50;71.60;;;;;;4783276;30;20054;-82
2022/07/13 06:35:35;;;;;;;3.83;2.50;;;23.50;71.50;;;;;;4754311;30;20055;-82
2022/07/13 06:38:02;;;;;;;3.70;2.47;;;23.50;71.40;;;;;;4760252;30;20057;-82
2022/07/13 06:40:29;;;;;;;3.38;1.90;;;23.50;71.20;;;;;;4768714;30;20047;-81
2022/07/13 06:42:56;;;;;;;4.63;2.35;;;23.50;71.20;;;;;;4782523;29;20055;-82
2022/07/13 06:45:25;;;;;;;2.63;1.60;;;23.60;70.90;;;;;;4769395;29;20059;-82
2022/07/13 06:47:52;;;;;;;4.32;2.40;;;23.70;70.70;;;;;;4787132;30;20071;-82
2022/07/13 06:50:20;;;;;;;3.53;2.20;;;23.80;70.40;;;;;;4742626;30;20493;-82
2022/07/13 06:52:48;;;;;;;3.65;2.17;;;23.80;70.20;;;;;;4772344;29;20048;-81
2022/07/13 06:55:15;;;;;;;4.50;2.90;;;23.90;70.10;;;;;;4773228;30;20067;-82
2022/07/13 06:57:42;;;;;;;4.28;2.25;;;23.90;69.70;;;;;;4763636;30;20052;-81
2022/07/13 07:00:10;;;;;;;4.35;2.88;;;23.90;70.20;;;;;;4746088;30;20505;-81
2022/07/13 07:02:37;;;;;;;4.70;2.55;;;24.00;69.30;;;;;;4786606;30;20047;-81
2022/07/13 07:05:11;;;;;;;5.40;3.30;;;24.00;69.30;;;;;;4786869;30;20052;-81
2022/07/13 07:07:42;;;;;;;3.88;2.30;;;24.10;69.10;;;;;;4779297;29;20101;-87
2022/07/13 07:10:11;;;;;;;3.83;2.38;;;24.10;69.10;;;;;;4759507;29;20146;-85
2022/07/13 07:12:41;;;;;;;5.65;2.90;;;24.00;69.20;;;;;;4790503;30;20112;-85
2022/07/13 07:15:09;;;;;;;4.43;2.78;;;24.00;69.20;;;;;;4737368;30;20120;-84
2022/07/13 07:17:51;;;;;;;4.68;3.22;;;24.00;69.30;;;;;;4772070;29;20044;-84
2022/07/13 07:20:18;;;;;;;4.38;2.35;;;24.10;69.10;;;;;;4776579;30;20044;-84
2022/07/13 07:22:46;;;;;;;4.22;2.50;;;24.20;69.60;;;;;;4775175;30;20055;-85
2022/07/13 07:25:14;;;;;;;3.60;2.15;;;24.30;68.70;;;;;;4793483;29;20079;-86
2022/07/13 07:27:41;;;;;;;4.13;2.72;;;24.40;68.40;;;;;;4772168;30;20051;-84
2022/07/13 07:30:08;;;;;;;3.28;2.20;;;24.40;68.20;;;;;;4794539;29;20052;-88
2022/07/13 07:32:35;;;;;;;3.33;2.30;;;24.50;68.10;;;;;;4767733;30;20062;-83
2022/07/13 07:35:03;;;;;;;4.15;2.65;;;24.70;67.90;;;;;;4753969;30;20067;-88
2022/07/13 07:37:30;;;;;;;4.55;2.85;;;24.80;67.50;;;;;;4762448;29;20056;-86
2022/07/13 07:39:57;;;;;;;4.50;2.80;;;24.90;67.30;;;;;;4772535;30;20047;-85
2022/07/13 07:42:24;;;;;;;5.65;3.80;;;25.00;66.70;;;;;;4757075;30;20059;-84
2022/07/13 07:44:51;;;;;;;4.97;2.30;;;25.10;66.20;;;;;;4765324;29;20116;-83
2022/07/13 07:47:22;;;;;;;4.47;2.78;;;25.20;66.20;;;;;;4759101;30;20394;-86
2022/07/13 07:49:49;;;;;;;3.90;2.97;;;25.30;66.00;;;;;;4765985;30;20080;-86
2022/07/13 07:52:16;;;;;;;4.53;2.60;;;25.50;65.70;;;;;;4776267;29;20048;-86
2022/07/13 07:55:03;;;;;;;4.05;2.35;;;25.60;65.40;;;;;;4784348;29;20111;-86
2022/07/13 07:57:30;;;;;;;4.85;2.33;;;25.60;65.30;;;;;;4767176;30;20059;-86
2022/07/13 07:59:57;;;;;;;5.32;2.70;;;25.70;65.10;;;;;;4781445;30;20070;-88
2022/07/13 08:02:24;;;;;;;4.97;1.83;;;25.70;64.90;;;;;;4755993;29;20112;-86
2022/07/13 08:04:52;;;;;;;3.83;2.22;;;25.70;64.90;;;;;;4766531;30;20068;-89
2022/07/13 08:07:19;;;;;;;4.30;2.17;;;25.70;65.40;;;;;;4774771;29;20513;-87
2022/07/13 08:09:46;;;;;;;3.38;1.77;;;25.70;64.80;;;;;;4758506;30;20386;-84
2022/07/13 08:12:13;;;;;;;4.10;2.22;;;25.70;64.90;;;;;;4778953;29;20079;-84
2022/07/13 08:14:41;;;;;;;3.80;1.65;;;25.70;64.70;;;;;;4764812;30;20047;-89
2022/07/13 08:17:08;;;;;;;2.75;1.55;;;25.70;64.60;;;;;;4787824;29;20059;-88
2022/07/13 08:19:36;;;;;;;3.67;1.60;;;25.60;64.80;;;;;;4756871;30;20059;-87
2022/07/13 08:22:07;;;;;;;3.40;1.83;;;25.60;64.90;;;;;;4751452;30;20142;-86
2022/07/13 08:24:34;;;;;;;2.53;1.42;;;25.50;65.70;;;;;;4769745;30;20044;-88
2022/07/13 08:27:01;;;;;;;3.20;1.63;;;25.60;64.90;;;;;;4804063;29;20047;-84
2022/07/13 08:29:28;;;;;;;2.53;1.40;;;25.80;64.70;;;;;;4771853;30;20055;-86
2022/07/13 08:31:55;;;;;;;3.35;1.85;;;25.90;64.60;;;;;;4774603;30;20058;-86
2022/07/13 08:39:54;;;;;;;1.58;1.00;;;26.40;64.00;;;;;;4751804;30;20051;-86
2022/07/13 08:42:21;;;;;;;3.35;1.60;;;26.70;63.60;;;;;;4758402;30;20063;-86
2022/07/13 08:44:48;;;;;;;3.25;1.42;;;26.90;63.30;;;;;;4769051;30;20035;-83
2022/07/13 08:47:17;;;;;;;2.38;1.33;;;27.00;63.00;;;;;;4791395;29;20063;-78
2022/07/13 08:49:44;;;;;;;3.03;1.75;;;27.00;62.90;;;;;;4769623;30;20052;-78
2022/07/13 08:52:12;;;;;;;3.88;1.42;;;26.90;63.10;;;;;;4755151;30;20128;-80
2022/07/13 08:54:39;;;;;;;2.35;1.50;;;26.90;63.20;;;;;;4770215;30;20064;-83
2022/07/13 08:57:06;;;;;;;2.63;1.30;;;27.00;63.10;;;;;;4755645;30;20054;-82
2022/07/13 08:59:33;;;;;;;3.10;1.90;;;27.10;63.00;;;;;;4759609;30;20064;-83
2022/07/13 09:02:00;;;;;;;2.70;1.63;;;27.20;62.70;;;;;;4772315;30;20101;-87
2022/07/13 09:04:28;;;;;;;2.53;1.30;;;27.40;62.80;;;;;;4750521;30;20090;-82
2022/07/13 09:06:56;;;;;;;2.50;1.38;;;27.50;62.50;;;;;;4755536;30;20123;-86
2022/07/13 09:09:31;;;;;;;3.80;1.80;;;27.50;62.10;;;;;;4773893;29;20047;-87
2022/07/13 09:12:23;;;;;;;2.30;1.20;;;27.60;61.70;;;;;;4771022;29;20055;-86
2022/07/13 09:14:52;;;;;;;2.42;1.48;;;27.50;61.80;;;;;;4775751;29;20055;-85
2022/07/13 09:17:54;;;;;;;3.03;1.85;;;27.40;61.70;;;;;;4769964;29;20047;-86
2022/07/13 09:20:22;;;;;;;2.83;1.45;;;27.40;61.50;;;;;;4741489;30;20497;-85
2022/07/13 09:23:01;;;;;;;2.42;1.48;;;27.40;61.70;;;;;;4767894;30;20158;-84
2022/07/13 09:25:33;;;;;;;2.38;1.45;;;27.40;61.30;;;;;;4756714;30;20496;-84
2022/07/13 09:28:10;;;;;;;;;;;27.50;61.40;;;;;;4791302;29;20898;-85
2022/07/13 09:30:41;;;;;;;2.97;1.50;;;27.60;61.30;;;;;;4792446;29;19926;-86
2022/07/13 09:33:09;;;;;;;2.88;1.77;;;27.60;61.10;;;;;;4759139;29;20402;-89
2022/07/13 09:35:49;;;;;;;2.63;1.55;;;27.70;60.90;;;;;;4757474;30;20105;-87
2022/07/13 09:38:35;;;;;;;3.35;1.52;;;27.70;60.70;;;;;;4759896;30;20052;-88
2022/07/13 09:41:17;;;;;;;3.97;1.83;;;27.70;60.70;;;;;;4770063;30;20071;-82
2022/07/13 09:46:59;;;;;;;3.05;1.58;;;28.10;60.50;;;;;;4783972;30;20047;-82
2022/07/13 09:49:39;;;;;;;2.88;1.88;;;28.20;59.80;;;;;;4771775;29;20048;-83
2022/07/13 09:52:08;;;;;;;2.88;1.45;;;28.30;59.60;;;;;;4770648;30;20114;-90
2022/07/13 09:54:38;;;;;;;2.47;1.20;;;28.40;59.50;;;;;;4739841;30;20063;-81
2022/07/13 09:57:08;;;;;;;2.72;1.50;;;28.50;59.10;;;;;;4754458;30;20085;-81
2022/07/13 09:59:37;;;;;;;2.45;1.45;;;28.60;58.70;;;;;;4785656;30;20536;-83
2022/07/13 10:02:05;;;;;;;2.50;1.35;;;28.70;58.60;;;;;;4785339;30;20090;-83
2022/07/13 10:04:32;;;;;;;3.53;1.95;;;28.80;58.20;;;;;;4793095;29;20501;-84
2022/07/13 10:07:18;;;;;;;3.47;2.00;;;28.80;57.60;;;;;;4760140;30;20044;-85
2022/07/13 10:09:45;;;;;;;2.95;1.80;;;28.70;57.00;;;;;;4786595;29;20498;-87
2022/07/13 10:12:13;;;;;;;3.60;1.90;;;28.70;57.00;;;;;;4769507;30;20074;-88
2022/07/13 10:14:41;;;;;;;3.78;2.05;;;28.70;56.90;;;;;;4740461;30;20062;-86
2022/07/13 10:17:14;;;;;;;2.85;1.83;;;28.90;56.70;;;;;;4779535;29;20087;-85
2022/07/13 10:19:55;;;;;;;3.33;1.90;;;28.90;56.30;;;;;;4779298;30;20062;-85
2022/07/13 10:22:29;;;;;;;3.40;1.40;;;29.10;56.40;;;;;;4760042;30;20070;-85
2022/07/13 10:24:59;;;;;;;2.70;1.40;;;29.20;56.20;;;;;;4769729;30;20071;-84
2022/07/13 10:27:31;;;;;;;2.30;1.40;;;29.30;55.30;;;;;;4771852;30;20051;-86
2022/07/13 10:30:05;;;;;;;2.97;1.90;;;29.40;55.00;;;;;;4769380;30;20047;-86
2022/07/13 10:32:40;;;;;;;3.10;1.58;;;29.50;54.90;;;;;;4780069;29;20055;-86
2022/07/13 10:35:10;;;;;;;2.10;1.05;;;29.50;54.70;;;;;;4783389;29;20120;-86
2022/07/13 10:37:55;;;;;;;1.70;1.23;;;29.50;54.70;;;;;;4799468;29;20055;-87
2022/07/13 10:40:32;;;;;;;1.70;1.17;;;29.60;54.40;;;;;;4765928;29;20059;-88
2022/07/13 10:43:04;;;;;;;3.20;1.52;;;29.70;54.30;;;;;;4785992;29;20094;-88
2022/07/13 10:45:52;;;;;;;3.60;1.20;;;29.70;54.20;;;;;;4770026;30;20130;-85
2022/07/13 10:48:42;;;;;;;2.15;1.13;;;29.80;54.10;;;;;;4756920;30;20409;-85
2022/07/13 10:51:16;;;;;;;2.10;1.10;;;30.00;53.90;;;;;;4786065;29;20082;-87
2022/07/13 10:53:50;;;;;;;2.00;1.10;;;30.20;53.80;;;;;;4775356;29;20074;-87
2022/07/13 10:56:19;;;;;;;2.65;1.25;;;30.40;53.60;;;;;;4775538;29;20058;-82
2022/07/13 10:58:49;;;;;;;2.17;1.27;;;30.60;52.80;;;;;;4783978;29;20036;-88
2022/07/13 11:01:47;;;;;;;1.80;1.00;;;30.70;52.50;;;;;;4776511;30;20458;-88
2022/07/13 11:04:17;;;;;;;2.60;1.48;;;30.80;52.40;;;;;;4772760;29;20610;-87
2022/07/13 11:07:04;;;;;;;2.88;1.40;;;30.70;52.10;;;;;;4774652;30;20095;-86
2022/07/13 11:09:33;;;;;;;3.70;1.80;;;30.60;52.00;;;;;;4775531;30;20082;-91
2022/07/13 11:12:00;;;;;;;3.28;1.48;;;30.50;52.10;;;;;;4763951;29;20154;-86
2022/07/13 11:14:38;;;;;;;3.05;1.60;;;30.40;52.10;;;;;;4755301;30;20052;-87
2022/07/13 11:17:27;;;;;;;2.30;1.17;;;30.50;52.20;;;;;;4765908;30;20058;-86
2022/07/13 11:20:12;;;;;;;2.13;1.20;;;30.70;52.20;;;;;;4800257;29;20062;-87
2022/07/13 11:25:55;;;;;;;2.90;1.73;;;30.90;51.60;;;;;;4771989;29;20052;-85
2022/07/13 11:28:41;;;;;;;4.03;1.38;;;30.90;51.70;;;;;;4775337;30;20055;-86
2022/07/13 11:31:15;;;;;;;1.73;0.82;;;30.90;51.50;;;;;;4785974;30;20104;-86
2022/07/13 11:33:52;;;;;;;2.90;1.13;;;30.90;51.40;;;;;;4775169;29;20513;-87
2022/07/13 11:36:25;;;;;;;1.98;0.93;;;31.00;51.70;;;;;;4787925;29;20051;-83
2022/07/13 11:38:59;;;;;;;2.75;0.90;;;31.00;50.50;;;;;;4778638;29;20086;-86
2022/07/13 11:41:27;;;;;;;2.83;0.90;;;30.90;49.90;;;;;;4786684;29;20405;-88
2022/07/13 11:43:54;;;;;;;2.00;0.80;;;30.90;49.40;;;;;;4771663;29;20066;-83
2022/07/13 11:46:27;;;;;;;1.45;0.77;;;30.90;48.40;;;;;;4797016;29;20140;-87
2022/07/13 11:49:05;;;;;;;2.42;0.70;;;30.70;47.70;;;;;;4802395;29;20055;-89
2022/07/13 11:51:33;;;;;;;1.92;0.70;;;30.60;47.90;;;;;;4791338;29;20087;-87
2022/07/13 11:54:12;;;;;;;1.98;0.70;;;30.60;47.90;;;;;;4777041;30;20062;-86
2022/07/13 11:56:56;;;;;;;1.52;0.70;;;30.40;46.80;;;;;;4776042;30;20105;-84
2022/07/13 11:59:38;;;;;;;1.83;0.70;;;30.50;46.60;;;;;;4771644;30;20437;-87
2022/07/13 12:02:08;;;;;;;1.25;0.50;;;30.50;45.50;;;;;;4762585;29;20505;-86
2022/07/13 12:04:40;;;;;;;1.20;0.57;;;30.60;44.70;;;;;;4771493;29;20108;-83
2022/07/13 12:07:23;;;;;;;1.58;0.63;;;30.80;44.80;;;;;;4771663;30;20080;-84
2022/07/13 12:09:54;;;;;;;1.23;0.65;;;30.80;44.10;;;;;;4771316;30;20123;-87
2022/07/13 12:12:25;;;;;;;1.10;0.57;;;30.70;43.50;;;;;;4778760;29;20051;-87
2022/07/13 12:14:54;;;;;;;0.60;0.38;;;30.70;43.20;;;;;;4776938;30;20086;-85
2022/07/13 12:17:22;;;;;;;2.05;0.90;;;31.10;42.90;;;;;;4774233;30;20575;-86
2022/07/13 12:19:49;;;;;;;2.25;0.75;;;31.50;42.40;;;;;;4789754;29;20492;-86
2022/07/13 12:22:24;;;;;;;2.00;0.90;;;32.00;42.10;;;;;;4789616;29;20064;-86
2022/07/13 12:24:51;;;;;;;1.80;0.70;;;32.30;41.40;;;;;;4756502;29;20579;-85
2022/07/13 12:27:25;;;;;;;1.13;0.60;;;32.60;41.50;;;;;;4771377;30;20044;-86
2022/07/13 12:30:06;;;;;;;1.55;0.90;;;33.00;41.10;;;;;;4741141;30;20501;-77
2022/07/13 12:32:53;;;;;;;1.42;0.68;;;33.00;41.00;;;;;;4771599;30;20122;-78
2022/07/13 12:35:20;;;;;;;1.80;0.60;;;33.20;40.90;;;;;;4778460;29;20490;-76
2022/07/13 12:37:51;;;;;;;0.90;0.43;;;33.60;40.70;;;;;;4761972;30;20052;-78
2022/07/13 12:40:39;;;;;;;1.10;0.60;;;34.10;40.30;;;;;;4786689;29;20055;-76
2022/07/13 12:43:25;;;;;;;1.83;0.70;;;34.70;40.10;;;;;;4776922;30;20120;-86
2022/07/13 12:45:59;;;;;;;1.15;0.50;;;35.10;39.40;;;;;;4760349;30;20105;-84
2022/07/13 12:48:28;;;;;;;1.88;0.60;;;35.10;39.00;;;;;;4769592;29;20146;-85
2022/07/13 12:51:02;;;;;;;1.50;0.63;;;35.20;39.00;;;;;;4772665;30;20044;-87
2022/07/13 12:53:59;;;;;;;2.47;0.80;;;35.20;38.70;;;;;;4756938;30;20043;-87
2022/07/13 12:56:27;;;;;;;2.10;0.70;;;35.40;38.60;;;;;;4801844;29;20043;-88
2022/07/13 12:58:58;;;;;;;2.72;0.77;;;35.60;38.70;;;;;;4799303;29;20438;-87
2022/07/13 13:01:31;;;;;;;1.27;0.73;;;35.60;38.50;;;;;;4773738;30;20334;-85
2022/07/13 13:04:02;;;;;;;2.17;0.80;;;35.20;38.90;;;;;;4787544;29;20505;-85
2022/07/13 13:06:38;;;;;;;2.08;0.90;;;34.60;39.40;;;;;;4775084;30;20043;-85
2022/07/13 13:09:10;;;;;;;1.40;0.70;;;34.00;39.50;;;;;;4772545;30;20087;-87
2022/07/13 13:11:39;;;;;;;3.08;0.70;;;33.70;39.60;;;;;;4794872;29;20557;-88
2022/07/13 13:14:06;;;;;;;1.58;0.90;;;33.60;39.80;;;;;;4786508;29;20051;-86